LTBG

Bandırma Airport

Turkey
TAF COR LTBG 211640Z 2118/2203 VRB02KT 9999 FEW035 SCT100
Issued Valid From Valid To
Jun-21 @ 16:40 UTC
(an hour ago)
Jun-21 @ 18:00 UTC
(3 minutes ago)
Jun-22 @ 03:00 UTC
(in 9 hours)
Jun-21 @ 18:00 to Jun-22 @ 03:00
TAF COR LTBG 211640Z 2118/2203 VRB02KT 9999 FEW035 SCT100
Wind Visibility Clouds
Variable at 2 knots 10,000+ meters
  • Few at 3,500' AGL
  • Scattered at 10,000' AGL
TAF COR LTBG 211640Z 2118/2203 VRB02KT 9999 FEW035 SCT100
Issued Jun-21 @ 16:40 UTC
(an hour ago)
Valid From Jun-21 @ 18:00 UTC
(3 minutes ago)
Valid To Jun-22 @ 03:00 UTC
(in 9 hours)
Jun-21 @ 18:00 - Jun-22 @ 03:00
Wind Visibility
Variable at 2 knots 10,000+ meters
Clouds
  • Few at 3,500' AGL
  • Scattered at 10,000' AGL